Time;durP1;ratioP1;P1;durP2;ratioP2;P2;SDS_P1;SDS_P2;PMS_P1;PMS_P2;Temp;Humidity;BMP_temperature;BMP_pressure;BME280_temperature;BME280_humidity;BME280_pressure;Samples;Min_cycle;Max_cycle;Signal;HPM_P1;HPM_P2
2023/03/14 00:01:48;;;;;;;0.60;0.60;;;11.10;99.90;;;;;;5053741;28;20565;-78
2023/03/14 00:04:14;;;;;;;0.60;0.60;;;11.10;99.90;;;;;;5055814;28;20079;-78
2023/03/14 00:06:39;;;;;;;0.60;0.60;;;11.20;99.90;;;;;;5078324;28;21041;-78
2023/03/14 00:09:05;;;;;;;0.60;0.60;;;11.30;99.90;;;;;;5056299;28;20039;-77
2023/03/14 00:11:31;;;;;;;0.60;0.60;;;11.30;99.90;;;;;;5057464;28;20062;-78
2023/03/14 00:13:57;;;;;;;0.60;0.60;;;11.30;99.90;;;;;;5058121;28;20079;-78
2023/03/14 00:16:22;;;;;;;0.60;0.60;;;11.40;99.90;;;;;;5076061;28;20139;-78
2023/03/14 00:18:48;;;;;;;0.60;0.60;;;11.40;99.90;;;;;;5077866;28;20506;-79
2023/03/14 00:21:14;;;;;;;0.60;0.60;;;11.50;99.90;;;;;;5052216;28;20099;-77
2023/03/14 00:23:41;;;;;;;0.60;0.60;;;11.50;99.90;;;;;;5077686;28;20132;-78
2023/03/14 00:26:10;;;;;;;0.60;0.60;;;11.50;99.90;;;;;;5074906;28;20154;-78
2023/03/14 00:28:36;;;;;;;0.60;0.60;;;11.50;99.90;;;;;;5071873;28;20044;-79
2023/03/14 00:31:03;;;;;;;0.60;0.60;;;11.50;99.90;;;;;;5069699;28;20971;-78
2023/03/14 00:33:29;;;;;;;0.60;0.60;;;11.50;99.90;;;;;;5042634;28;20112;-78
2023/03/14 00:35:57;;;;;;;0.60;0.60;;;11.50;99.90;;;;;;5037129;28;20769;-78
2023/03/14 00:38:24;;;;;;;0.60;0.60;;;11.50;99.90;;;;;;5053780;28;20079;-79
2023/03/14 00:40:50;;;;;;;0.60;0.60;;;11.50;99.90;;;;;;5056370;28;20482;-77
2023/03/14 00:43:16;;;;;;;0.60;0.60;;;11.60;99.90;;;;;;5055244;28;20075;-78
2023/03/14 00:45:42;;;;;;;0.60;0.60;;;11.60;99.90;;;;;;5055265;28;20125;-78
2023/03/14 00:48:08;;;;;;;0.60;0.60;;;11.60;99.90;;;;;;5053182;28;20059;-78
2023/03/14 00:50:33;;;;;;;0.60;0.60;;;11.60;99.90;;;;;;5069280;28;20051;-78
2023/03/14 00:52:59;;;;;;;0.60;0.60;;;11.60;99.90;;;;;;5057642;28;20055;-78
2023/03/14 00:55:25;;;;;;;0.60;0.60;;;11.60;99.90;;;;;;5074318;28;21593;-78
2023/03/14 00:57:51;;;;;;;0.60;0.60;;;11.50;99.90;;;;;;5075670;28;20036;-79
2023/03/14 01:00:17;;;;;;;0.60;0.60;;;11.60;99.90;;;;;;5056270;28;20107;-78
2023/03/14 01:02:43;;;;;;;0.60;0.60;;;11.60;99.90;;;;;;5076435;28;20050;-79
2023/03/14 01:05:10;;;;;;;0.60;0.60;;;11.70;99.90;;;;;;5057712;28;20047;-80
2023/03/14 01:07:36;;;;;;;0.60;0.60;;;11.70;99.90;;;;;;5073707;28;20462;-80
2023/03/14 01:10:03;;;;;;;0.60;0.60;;;11.70;99.90;;;;;;5054124;28;20055;-79
2023/03/14 01:12:29;;;;;;;0.60;0.60;;;11.70;99.90;;;;;;5058991;28;20574;-79
2023/03/14 01:14:54;;;;;;;0.60;0.60;;;11.70;99.90;;;;;;5056815;28;20074;-78
2023/03/14 01:17:20;;;;;;;0.55;0.55;;;11.70;99.90;;;;;;5072834;28;20105;-78
2023/03/14 01:19:46;;;;;;;0.60;0.60;;;11.50;99.90;;;;;;5074963;28;20457;-80
2023/03/14 01:22:11;;;;;;;0.60;0.60;;;11.20;99.90;;;;;;5074969;28;20039;-79
2023/03/14 01:24:38;;;;;;;0.60;0.60;;;11.00;99.90;;;;;;5040656;28;20079;-81
2023/03/14 01:27:03;;;;;;;0.60;0.60;;;10.50;99.90;;;;;;5058026;28;20044;-80
2023/03/14 01:29:29;;;;;;;0.60;0.60;;;10.10;99.90;;;;;;5069431;28;20074;-80
2023/03/14 01:31:55;;;;;;;0.60;0.60;;;10.00;99.90;;;;;;5039025;28;20036;-81
2023/03/14 01:34:20;;;;;;;0.65;0.65;;;10.00;99.90;;;;;;5069281;28;20040;-81
2023/03/14 01:36:46;;;;;;;0.60;0.60;;;10.00;99.90;;;;;;5047755;28;20048;-81
2023/03/14 01:39:12;;;;;;;0.60;0.60;;;10.30;99.90;;;;;;5038974;28;20470;-80
2023/03/14 01:41:39;;;;;;;0.60;0.60;;;10.30;99.90;;;;;;5037373;28;20048;-80
2023/03/14 01:44:09;;;;;;;0.60;0.60;;;10.30;99.90;;;;;;5055457;28;20498;-80
2023/03/14 01:46:38;;;;;;;0.60;0.60;;;10.40;99.90;;;;;;5059666;28;20058;-83
2023/03/14 01:49:22;;;;;;;0.60;0.60;;;10.40;99.90;;;;;;5038810;28;20100;-82
2023/03/14 01:51:56;;;;;;;0.60;0.60;;;10.50;99.90;;;;;;5034175;28;20145;-81
2023/03/14 01:54:28;;;;;;;0.60;0.60;;;10.50;99.90;;;;;;5057718;28;20127;-81
2023/03/14 01:57:08;;;;;;;0.60;0.60;;;10.40;99.90;;;;;;5057759;28;20719;-81
2023/03/14 01:59:35;;;;;;;0.60;0.60;;;10.40;99.90;;;;;;5072392;28;20047;-81
2023/03/14 02:02:02;;;;;;;0.60;0.60;;;10.40;99.90;;;;;;5049198;28;20044;-81
2023/03/14 02:04:32;;;;;;;0.60;0.60;;;10.50;99.90;;;;;;5055696;28;20040;-82
2023/03/14 02:07:20;;;;;;;0.50;0.50;;;10.40;99.90;;;;;;5059204;28;20378;-82
2023/03/14 02:09:48;;;;;;;0.60;0.60;;;10.50;99.90;;;;;;5073406;28;20094;-81
2023/03/14 02:12:16;;;;;;;0.60;0.60;;;10.50;99.90;;;;;;5054583;28;20166;-81
2023/03/14 02:14:47;;;;;;;0.60;0.60;;;10.40;99.90;;;;;;5075103;28;20048;-83
2023/03/14 02:17:15;;;;;;;0.60;0.60;;;10.40;99.90;;;;;;5070397;28;20044;-81
2023/03/14 02:20:01;;;;;;;0.60;0.60;;;10.30;99.90;;;;;;5040532;28;20071;-80
2023/03/14 02:22:27;;;;;;;0.60;0.60;;;10.30;99.90;;;;;;5038608;28;20040;-82
2023/03/14 02:25:06;;;;;;;0.60;0.60;;;10.30;99.90;;;;;;5059181;28;20508;-81
2023/03/14 02:27:33;;;;;;;0.60;0.60;;;10.20;99.90;;;;;;5051673;28;20523;-81
2023/03/14 02:30:03;;;;;;;0.60;0.60;;;10.20;99.90;;;;;;5071545;28;20047;-81
2023/03/14 02:32:32;;;;;;;0.60;0.60;;;10.30;99.90;;;;;;5052613;28;20136;-80
2023/03/14 02:35:00;;;;;;;0.60;0.60;;;10.20;99.90;;;;;;5070642;28;20401;-80
2023/03/14 02:37:55;;;;;;;0.60;0.60;;;10.30;99.90;;;;;;5052826;28;20052;-80
2023/03/14 02:40:21;;;;;;;0.60;0.60;;;10.30;99.90;;;;;;5044764;28;20095;-80
2023/03/14 02:42:47;;;;;;;0.60;0.60;;;10.30;99.90;;;;;;5042004;28;20044;-81
2023/03/14 02:45:15;;;;;;;0.50;0.50;;;10.20;99.90;;;;;;5062036;28;20036;-80
2023/03/14 02:47:46;;;;;;;0.50;0.50;;;10.20;99.90;;;;;;5078348;28;20040;-80
2023/03/14 02:50:25;;;;;;;0.60;0.60;;;10.20;99.90;;;;;;5053482;28;20040;-81
2023/03/14 02:52:51;;;;;;;0.60;0.60;;;10.20;99.90;;;;;;5060655;28;20509;-81
2023/03/14 02:55:24;;;;;;;0.55;0.55;;;10.10;99.90;;;;;;5075894;28;20047;-81
2023/03/14 02:57:50;;;;;;;0.60;0.60;;;10.20;99.90;;;;;;5078364;28;20135;-81
2023/03/14 03:00:16;;;;;;;0.60;0.60;;;10.10;99.90;;;;;;5072806;28;20130;-80
2023/03/14 03:02:42;;;;;;;0.60;0.60;;;10.10;99.90;;;;;;5062439;28;20105;-81
2023/03/14 03:05:08;;;;;;;0.60;0.60;;;10.20;99.90;;;;;;5060794;28;20048;-81
2023/03/14 03:07:33;;;;;;;0.60;0.60;;;10.20;99.90;;;;;;5077520;28;20528;-81
2023/03/14 03:09:59;;;;;;;0.60;0.60;;;10.10;99.90;;;;;;5062408;28;20066;-82
2023/03/14 03:12:25;;;;;;;0.60;0.60;;;10.00;99.90;;;;;;5062726;28;20048;-83
2023/03/14 03:14:51;;;;;;;0.60;0.60;;;9.90;99.90;;;;;;5061085;28;20090;-82
2023/03/14 03:17:17;;;;;;;0.50;0.50;;;9.80;99.90;;;;;;5062175;28;20146;-81
2023/03/14 03:19:43;;;;;;;0.50;0.50;;;9.90;99.90;;;;;;5056895;28;20703;-81
2023/03/14 03:22:09;;;;;;;0.50;0.50;;;9.80;99.90;;;;;;5073746;28;20052;-81
2023/03/14 03:24:34;;;;;;;0.50;0.50;;;9.90;99.90;;;;;;5058785;28;20056;-80
2023/03/14 03:27:00;;;;;;;0.60;0.60;;;9.80;99.90;;;;;;5058691;28;20048;-81
2023/03/14 03:29:26;;;;;;;0.60;0.60;;;9.80;99.90;;;;;;5058779;28;20044;-81
2023/03/14 03:31:51;;;;;;;0.52;0.52;;;9.80;99.90;;;;;;5058144;28;20099;-81
2023/03/14 03:34:17;;;;;;;0.50;0.50;;;9.80;99.90;;;;;;5070959;28;20044;-80
2023/03/14 03:36:42;;;;;;;0.60;0.60;;;9.80;99.90;;;;;;5060908;28;20044;-79
2023/03/14 03:39:08;;;;;;;0.60;0.60;;;9.80;99.90;;;;;;5078290;28;20043;-80
2023/03/14 03:41:34;;;;;;;0.50;0.50;;;9.80;99.90;;;;;;5077059;28;20750;-80
2023/03/14 03:43:59;;;;;;;0.60;0.60;;;9.80;99.90;;;;;;5056749;28;20720;-80
2023/03/14 03:46:25;;;;;;;0.57;0.57;;;9.80;99.90;;;;;;5077299;28;20044;-80
2023/03/14 03:48:56;;;;;;;0.50;0.50;;;9.80;99.90;;;;;;5075835;28;20574;-80
2023/03/14 03:51:22;;;;;;;0.50;0.50;;;9.80;99.90;;;;;;5053502;28;20048;-79
2023/03/14 03:53:47;;;;;;;0.50;0.50;;;9.70;99.90;;;;;;5078210;28;20051;-81
2023/03/14 03:56:13;;;;;;;0.50;0.50;;;9.80;99.90;;;;;;5059196;28;20628;-80
2023/03/14 03:58:39;;;;;;;0.50;0.50;;;9.80;99.90;;;;;;5059105;28;20040;-80
2023/03/14 04:01:08;;;;;;;0.50;0.50;;;9.80;99.90;;;;;;5073172;28;20044;-80
2023/03/14 04:03:34;;;;;;;0.57;0.57;;;9.80;99.90;;;;;;5073293;28;20048;-81
2023/03/14 04:06:00;;;;;;;0.50;0.50;;;9.80;99.90;;;;;;5072712;28;20048;-81
2023/03/14 04:08:26;;;;;;;0.50;0.50;;;9.80;99.90;;;;;;5076317;28;20398;-79
2023/03/14 04:10:55;;;;;;;0.55;0.55;;;9.80;99.90;;;;;;5049490;28;20048;-81
2023/03/14 04:13:21;;;;;;;0.50;0.50;;;9.80;99.90;;;;;;5057922;28;20048;-81
2023/03/14 04:15:46;;;;;;;0.50;0.50;;;9.80;99.90;;;;;;5060858;28;20059;-79
2023/03/14 04:18:12;;;;;;;0.50;0.50;;;9.80;99.90;;;;;;5076215;28;20062;-81
2023/03/14 04:20:38;;;;;;;0.50;0.50;;;9.80;99.90;;;;;;5056270;28;20071;-79
2023/03/14 04:23:03;;;;;;;0.60;0.60;;;9.70;99.90;;;;;;5056857;28;20162;-79
2023/03/14 04:25:29;;;;;;;0.52;0.52;;;9.70;99.90;;;;;;5074947;28;20072;-79
2023/03/14 04:27:54;;;;;;;0.50;0.50;;;9.80;99.90;;;;;;5075557;28;20071;-80
2023/03/14 04:30:20;;;;;;;0.68;0.68;;;9.80;99.90;;;;;;5073011;28;20036;-81
2023/03/14 04:32:46;;;;;;;0.60;0.60;;;9.70;99.90;;;;;;5059302;28;20122;-80
2023/03/14 04:35:11;;;;;;;0.60;0.60;;;9.80;99.90;;;;;;5074813;28;20059;-79
2023/03/14 04:37:37;;;;;;;0.50;0.50;;;9.80;99.90;;;;;;5054834;28;20057;-80
2023/03/14 04:40:06;;;;;;;0.60;0.60;;;9.80;99.90;;;;;;5073455;28;20114;-80
2023/03/14 04:42:31;;;;;;;0.60;0.60;;;9.80;99.90;;;;;;5076486;28;20044;-80
2023/03/14 04:44:57;;;;;;;0.60;0.60;;;9.80;99.90;;;;;;5074082;28;20486;-79
2023/03/14 04:47:23;;;;;;;0.60;0.60;;;9.70;99.90;;;;;;5075211;28;20109;-80
2023/03/14 04:49:48;;;;;;;0.50;0.50;;;9.80;99.90;;;;;;5074258;28;20044;-80
2023/03/14 04:52:15;;;;;;;0.50;0.50;;;9.80;99.90;;;;;;5058322;28;20063;-80
2023/03/14 04:54:40;;;;;;;0.50;0.50;;;9.80;99.90;;;;;;5077126;28;20048;-80
2023/03/14 04:57:06;;;;;;;0.50;0.50;;;9.70;99.90;;;;;;5070078;28;20040;-80
2023/03/14 04:59:31;;;;;;;0.50;0.50;;;9.70;99.90;;;;;;5073006;28;20044;-80
2023/03/14 05:01:57;;;;;;;0.50;0.50;;;9.70;99.90;;;;;;5076712;28;20556;-79
2023/03/14 05:04:23;;;;;;;0.50;0.50;;;9.70;99.90;;;;;;5058802;28;20525;-79
2023/03/14 05:06:48;;;;;;;0.50;0.50;;;9.70;99.90;;;;;;5078136;28;20079;-80
2023/03/14 05:09:15;;;;;;;0.50;0.50;;;9.70;99.90;;;;;;5074357;28;20048;-79
2023/03/14 05:11:41;;;;;;;0.50;0.50;;;9.70;99.90;;;;;;5069540;28;20703;-80
2023/03/14 05:14:06;;;;;;;0.60;0.60;;;9.70;99.90;;;;;;5060392;28;20114;-80
2023/03/14 05:16:32;;;;;;;0.60;0.60;;;9.70;99.90;;;;;;5074098;28;20791;-80
2023/03/14 05:19:01;;;;;;;0.50;0.50;;;9.70;99.90;;;;;;5039808;28;20056;-81
2023/03/14 05:21:27;;;;;;;0.50;0.50;;;9.70;99.90;;;;;;5073217;28;20067;-81
2023/03/14 05:23:53;;;;;;;0.50;0.50;;;9.70;99.90;;;;;;5056119;28;20059;-80
2023/03/14 05:26:19;;;;;;;0.60;0.60;;;9.60;99.90;;;;;;5074895;28;20656;-79
2023/03/14 05:28:44;;;;;;;0.60;0.60;;;9.70;99.90;;;;;;5074192;28;20417;-80
2023/03/14 05:31:10;;;;;;;0.60;0.60;;;9.70;99.90;;;;;;5073115;28;20284;-80
2023/03/14 05:33:36;;;;;;;0.60;0.60;;;9.70;99.90;;;;;;5057310;28;20074;-80
2023/03/14 05:36:02;;;;;;;0.57;0.57;;;9.70;99.90;;;;;;5070690;28;20048;-80
2023/03/14 05:38:27;;;;;;;0.50;0.50;;;9.60;99.90;;;;;;5069911;28;20556;-80
2023/03/14 05:40:53;;;;;;;0.50;0.50;;;9.60;99.90;;;;;;5073082;28;20040;-80
2023/03/14 05:43:18;;;;;;;0.60;0.60;;;9.70;99.90;;;;;;5054807;28;20467;-80
2023/03/14 05:45:44;;;;;;;0.60;0.60;;;9.70;99.90;;;;;;5069319;28;20064;-80
2023/03/14 05:48:10;;;;;;;0.50;0.50;;;9.70;99.90;;;;;;5058677;28;20039;-80
2023/03/14 05:50:36;;;;;;;0.60;0.60;;;9.60;99.90;;;;;;5070092;28;20386;-80
2023/03/14 05:53:02;;;;;;;0.60;0.60;;;9.60;99.90;;;;;;5062681;28;20049;-79
2023/03/14 05:55:28;;;;;;;0.60;0.60;;;9.60;99.90;;;;;;5058213;28;20066;-80
2023/03/14 05:57:54;;;;;;;0.50;0.50;;;9.60;99.90;;;;;;5053073;28;20592;-80
2023/03/14 06:00:20;;;;;;;0.50;0.50;;;9.70;99.90;;;;;;5067178;28;20071;-80
2023/03/14 06:02:46;;;;;;;0.50;0.50;;;9.70;99.90;;;;;;5070143;28;21090;-80
2023/03/14 06:05:12;;;;;;;0.60;0.60;;;9.60;99.90;;;;;;5070683;28;20490;-79
2023/03/14 06:07:38;;;;;;;0.50;0.50;;;9.70;99.90;;;;;;5053642;28;20647;-80
2023/03/14 06:10:04;;;;;;;0.55;0.55;;;9.70;99.90;;;;;;5051275;28;20402;-78
2023/03/14 06:12:30;;;;;;;0.50;0.50;;;9.80;99.90;;;;;;5078420;28;20148;-80
2023/03/14 06:14:55;;;;;;;0.50;0.50;;;9.80;99.90;;;;;;5073210;28;20096;-80
2023/03/14 06:17:21;;;;;;;0.60;0.60;;;9.90;99.90;;;;;;5076708;28;20087;-80
2023/03/14 06:19:47;;;;;;;0.57;0.57;;;9.90;99.90;;;;;;5052436;28;20063;-80
2023/03/14 06:22:13;;;;;;;0.50;0.50;;;9.90;99.90;;;;;;5033615;28;20052;-80
2023/03/14 06:24:39;;;;;;;0.60;0.60;;;10.00;99.90;;;;;;5051771;28;20048;-80
2023/03/14 06:27:04;;;;;;;0.60;0.60;;;9.90;99.90;;;;;;5052257;28;20063;-80
2023/03/14 06:29:30;;;;;;;0.60;0.60;;;10.00;99.90;;;;;;5068142;28;20125;-78
2023/03/14 06:31:56;;;;;;;0.50;0.50;;;9.90;99.90;;;;;;5046801;28;20143;-79
2023/03/14 06:34:21;;;;;;;0.57;0.57;;;9.90;99.90;;;;;;5047403;28;20056;-79
2023/03/14 06:36:47;;;;;;;0.60;0.60;;;9.80;99.90;;;;;;5071164;28;20038;-80
2023/03/14 06:39:13;;;;;;;0.60;0.60;;;9.90;99.90;;;;;;5050100;28;20047;-81
2023/03/14 06:41:39;;;;;;;0.60;0.60;;;9.80;99.90;;;;;;5048835;28;20058;-81
2023/03/14 06:44:05;;;;;;;0.60;0.60;;;9.80;99.90;;;;;;5067694;28;20139;-81
2023/03/14 06:46:30;;;;;;;0.60;0.60;;;9.80;99.90;;;;;;5050926;28;20052;-80
2023/03/14 06:48:56;;;;;;;0.60;0.60;;;9.70;99.90;;;;;;5036975;28;20102;-80
2023/03/14 06:51:22;;;;;;;0.60;0.60;;;9.80;99.90;;;;;;5043268;28;20142;-77
2023/03/14 06:53:48;;;;;;;0.60;0.60;;;9.70;99.90;;;;;;5067324;28;20079;-81
2023/03/14 06:56:13;;;;;;;0.60;0.60;;;9.70;99.90;;;;;;5046730;28;20516;-81
2023/03/14 06:58:39;;;;;;;0.60;0.60;;;9.70;99.90;;;;;;5052473;28;20100;-80
2023/03/14 07:01:05;;;;;;;0.60;0.60;;;9.70;99.90;;;;;;5050086;28;20043;-80
2023/03/14 07:03:31;;;;;;;0.60;0.60;;;9.70;99.90;;;;;;5049077;28;20055;-81
2023/03/14 07:05:57;;;;;;;0.50;0.50;;;9.70;99.90;;;;;;5037957;28;20052;-81
2023/03/14 07:08:22;;;;;;;0.60;0.60;;;9.70;99.90;;;;;;5061395;28;20078;-81
2023/03/14 07:10:48;;;;;;;0.60;0.60;;;9.80;99.90;;;;;;5076752;28;20117;-80
2023/03/14 07:13:14;;;;;;;0.60;0.60;;;9.80;99.90;;;;;;5059587;28;20557;-80
2023/03/14 07:15:39;;;;;;;0.50;0.50;;;9.80;99.90;;;;;;5058912;28;20044;-81
2023/03/14 07:18:05;;;;;;;0.50;0.50;;;9.80;99.90;;;;;;5060059;28;20044;-81
2023/03/14 07:20:32;;;;;;;0.60;0.60;;;9.80;99.90;;;;;;5058720;28;20051;-81
2023/03/14 07:22:59;;;;;;;0.52;0.52;;;9.90;99.90;;;;;;5059572;28;20056;-81
2023/03/14 07:25:25;;;;;;;0.55;0.55;;;9.80;99.90;;;;;;5075640;28;20163;-81
2023/03/14 07:27:51;;;;;;;0.60;0.60;;;9.90;99.90;;;;;;5077345;28;20036;-82
2023/03/14 07:30:17;;;;;;;0.60;0.60;;;10.00;99.90;;;;;;5056005;28;20052;-81
2023/03/14 07:32:42;;;;;;;0.60;0.60;;;10.00;99.90;;;;;;5059925;28;20048;-81
2023/03/14 07:35:09;;;;;;;0.60;0.60;;;10.00;99.90;;;;;;5059869;28;20451;-82
2023/03/14 07:37:34;;;;;;;0.50;0.50;;;10.10;99.90;;;;;;5061971;28;20047;-80
2023/03/14 07:40:00;;;;;;;0.60;0.60;;;10.00;99.90;;;;;;5058647;28;20098;-82
2023/03/14 07:42:26;;;;;;;0.60;0.60;;;10.00;99.90;;;;;;5072738;28;20400;-82
2023/03/14 07:44:52;;;;;;;0.50;0.50;;;10.00;99.90;;;;;;5059391;28;20052;-82
2023/03/14 07:47:23;;;;;;;0.60;0.60;;;10.00;99.90;;;;;;5060331;28;20047;-81
2023/03/14 07:49:49;;;;;;;0.60;0.60;;;9.90;99.90;;;;;;5058878;28;20131;-82
2023/03/14 07:52:15;;;;;;;0.60;0.60;;;9.70;99.90;;;;;;5057404;28;20127;-82
2023/03/14 07:54:40;;;;;;;0.60;0.60;;;9.30;99.90;;;;;;5061813;28;20055;-81
2023/03/14 07:57:06;;;;;;;0.60;0.60;;;9.20;99.90;;;;;;5078365;28;20052;-81
2023/03/14 07:59:32;;;;;;;0.60;0.60;;;9.20;99.90;;;;;;5057601;28;20048;-82
2023/03/14 08:01:58;;;;;;;0.60;0.60;;;9.10;99.90;;;;;;5059036;28;20052;-82
2023/03/14 08:04:24;;;;;;;0.60;0.60;;;9.20;99.90;;;;;;5057062;28;20059;-82
2023/03/14 08:06:49;;;;;;;0.60;0.60;;;9.20;99.90;;;;;;5060880;28;20048;-82
2023/03/14 08:09:15;;;;;;;0.60;0.60;;;9.10;99.90;;;;;;5057289;28;20131;-82
2023/03/14 08:11:41;;;;;;;0.60;0.60;;;9.00;99.90;;;;;;5060217;28;20043;-82
2023/03/14 08:14:06;;;;;;;0.60;0.60;;;8.70;99.90;;;;;;5060539;28;20051;-81
2023/03/14 08:16:35;;;;;;;0.50;0.50;;;8.20;99.90;;;;;;5059466;28;20078;-83
2023/03/14 08:19:01;;;;;;;0.60;0.60;;;8.10;99.90;;;;;;5058030;28;20509;-84
2023/03/14 08:21:27;;;;;;;0.60;0.60;;;8.20;99.90;;;;;;5057253;28;20067;-81
2023/03/14 08:23:52;;;;;;;0.60;0.60;;;7.50;99.90;;;;;;5061142;28;20048;-83
2023/03/14 08:26:18;;;;;;;0.60;0.60;;;7.50;99.90;;;;;;5057251;28;20074;-82
2023/03/14 08:28:44;;;;;;;0.60;0.60;;;7.10;99.90;;;;;;5060782;28;21604;-82
2023/03/14 08:31:09;;;;;;;0.60;0.60;;;7.20;99.90;;;;;;5059912;28;20096;-82
2023/03/14 08:33:35;;;;;;;0.60;0.60;;;7.10;99.90;;;;;;5059613;28;20044;-82
2023/03/14 08:36:01;;;;;;;0.60;0.60;;;7.10;99.90;;;;;;5059589;28;20047;-82
2023/03/14 08:38:27;;;;;;;0.60;0.60;;;6.90;99.90;;;;;;5062691;28;20540;-82
2023/03/14 08:41:00;;;;;;;0.70;0.70;;;6.80;99.90;;;;;;5060146;28;20127;-83
2023/03/14 08:43:27;;;;;;;0.70;0.70;;;6.60;99.90;;;;;;5059745;28;20043;-84
2023/03/14 08:45:53;;;;;;;0.68;0.68;;;6.60;99.90;;;;;;5062936;28;20531;-83
2023/03/14 08:48:19;;;;;;;0.60;0.60;;;6.50;99.90;;;;;;5060786;28;20044;-82
2023/03/14 08:50:46;;;;;;;0.60;0.60;;;6.20;99.90;;;;;;5079765;28;20122;-81
2023/03/14 08:53:11;;;;;;;0.60;0.60;;;6.20;99.90;;;;;;5045657;28;20062;-82
2023/03/14 08:55:37;;;;;;;0.60;0.60;;;5.90;99.90;;;;;;5060791;28;20052;-82
2023/03/14 08:58:02;;;;;;;0.70;0.70;;;6.00;99.90;;;;;;5058674;28;20671;-82
2023/03/14 09:00:28;;;;;;;0.70;0.70;;;6.10;99.90;;;;;;5056619;28;20306;-81
2023/03/14 09:02:54;;;;;;;0.60;0.60;;;5.80;99.90;;;;;;5036206;28;20074;-81
2023/03/14 09:05:19;;;;;;;0.60;0.60;;;5.60;99.90;;;;;;5068883;28;20051;-81
2023/03/14 09:07:45;;;;;;;0.60;0.60;;;5.70;99.90;;;;;;5045811;28;20043;-82
2023/03/14 09:10:11;;;;;;;0.60;0.60;;;5.80;99.90;;;;;;5047760;28;20107;-83
2023/03/14 09:12:37;;;;;;;0.60;0.60;;;5.80;99.90;;;;;;5058641;28;20120;-81
2023/03/14 09:15:03;;;;;;;0.60;0.60;;;5.80;99.90;;;;;;5080500;28;20379;-81
2023/03/14 09:17:29;;;;;;;0.60;0.60;;;5.70;99.90;;;;;;5037763;28;20083;-80
2023/03/14 09:19:55;;;;;;;0.60;0.60;;;5.70;99.90;;;;;;5054981;28;20071;-81
2023/03/14 09:22:21;;;;;;;0.70;0.70;;;5.80;99.90;;;;;;5039409;28;20135;-80
2023/03/14 09:24:47;;;;;;;0.70;0.70;;;5.80;99.90;;;;;;5078748;28;20036;-81
2023/03/14 09:27:13;;;;;;;0.60;0.60;;;6.00;99.90;;;;;;5056429;28;20138;-81
2023/03/14 09:29:38;;;;;;;0.70;0.70;;;5.90;99.90;;;;;;5057590;28;20131;-81
2023/03/14 09:32:04;;;;;;;0.70;0.70;;;5.90;99.90;;;;;;5058706;28;20044;-80
2023/03/14 09:34:30;;;;;;;0.70;0.70;;;6.10;99.90;;;;;;5078811;28;20127;-81
2023/03/14 09:36:56;;;;;;;0.70;0.70;;;6.10;99.90;;;;;;5076223;28;20048;-81
2023/03/14 09:39:22;;;;;;;0.70;0.70;;;6.10;99.90;;;;;;5056571;28;20048;-82
2023/03/14 09:41:50;;;;;;;0.70;0.70;;;6.20;99.90;;;;;;5075104;28;20040;-81
2023/03/14 09:44:21;;;;;;;0.70;0.70;;;6.40;99.90;;;;;;5057724;28;20051;-81
2023/03/14 09:46:52;;;;;;;0.60;0.60;;;6.40;99.90;;;;;;5056016;28;20131;-81
2023/03/14 09:49:21;;;;;;;0.65;0.65;;;6.50;99.90;;;;;;5056003;28;20180;-81
2023/03/14 09:51:49;;;;;;;0.60;0.60;;;6.30;99.90;;;;;;5033297;28;20044;-82
2023/03/14 09:54:38;;;;;;;0.70;0.70;;;6.60;99.90;;;;;;5057486;28;20050;-81
2023/03/14 09:57:06;;;;;;;0.60;0.60;;;6.60;99.90;;;;;;5057905;28;20432;-82
2023/03/14 09:59:35;;;;;;;0.70;0.70;;;6.70;99.90;;;;;;5056772;28;20059;-82
2023/03/14 10:02:10;;;;;;;0.70;0.70;;;6.80;99.90;;;;;;5059103;28;20104;-78
2023/03/14 10:04:39;;;;;;;0.70;0.70;;;6.80;99.90;;;;;;5057293;28;20042;-82
2023/03/14 10:07:04;;;;;;;0.70;0.70;;;6.90;99.90;;;;;;5060442;28;20052;-81
2023/03/14 10:09:30;;;;;;;0.70;0.70;;;6.90;99.90;;;;;;5055728;28;20489;-81
2023/03/14 10:11:59;;;;;;;0.70;0.70;;;7.20;99.90;;;;;;5057886;28;20130;-81
2023/03/14 10:17:42;;;;;;;0.70;0.70;;;7.50;99.90;;;;;;5077196;28;20482;-81
2023/03/14 10:20:27;;;;;;;0.70;0.70;;;7.60;99.90;;;;;;5039828;28;20041;-81
2023/03/14 10:22:54;;;;;;;0.70;0.70;;;7.80;99.90;;;;;;5052936;28;20055;-82
2023/03/14 10:25:57;;;;;;;0.60;0.60;;;7.80;99.90;;;;;;5078689;28;20460;-82
2023/03/14 10:28:24;;;;;;;0.60;0.60;;;8.00;99.90;;;;;;5077916;28;20123;-80
2023/03/14 10:30:51;;;;;;;0.60;0.60;;;8.00;99.90;;;;;;5057089;28;20052;-81
2023/03/14 10:33:22;;;;;;;0.60;0.60;;;8.00;99.90;;;;;;5080307;28;20123;-80
2023/03/14 10:35:56;;;;;;;0.65;0.65;;;7.90;99.90;;;;;;5058236;28;20048;-80
2023/03/14 10:38:26;;;;;;;0.60;0.60;;;7.80;99.90;;;;;;5057102;28;20056;-80
2023/03/14 10:40:55;;;;;;;0.60;0.60;;;8.00;99.90;;;;;;5057303;28;20051;-80
2023/03/14 10:43:26;;;;;;;0.60;0.60;;;7.90;99.90;;;;;;5044453;28;20053;-78
2023/03/14 10:46:02;;;;;;;0.68;0.68;;;7.50;99.90;;;;;;5060263;28;20331;-77
2023/03/14 10:48:37;;;;;;;0.60;0.60;;;7.10;99.90;;;;;;5074354;28;20047;-80
2023/03/14 10:51:25;;;;;;;0.60;0.60;;;6.70;99.90;;;;;;5056491;28;20052;-80
2023/03/14 10:54:03;;;;;;;0.70;0.70;;;6.60;99.90;;;;;;5058047;28;20757;-80
2023/03/14 10:56:37;;;;;;;0.60;0.60;;;7.00;99.90;;;;;;5057350;28;20044;-80
2023/03/14 10:59:06;;;;;;;0.70;0.70;;;7.20;99.90;;;;;;5061596;28;20541;-80
2023/03/14 11:01:41;;;;;;;0.60;0.60;;;7.20;99.90;;;;;;5047682;28;21169;-80
2023/03/14 11:04:25;;;;;;;0.60;0.60;;;7.50;99.90;;;;;;5066896;28;20040;-80
2023/03/14 11:07:09;;;;;;;0.70;0.70;;;7.50;99.90;;;;;;5074565;28;20070;-79
2023/03/14 11:10:10;;;;;;;0.70;0.70;;;7.40;99.90;;;;;;5075058;28;20532;-80
2023/03/14 11:13:02;;;;;;;0.70;0.70;;;7.50;99.90;;;;;;5069564;28;20383;-81
2023/03/14 11:15:49;;;;;;;0.60;0.60;;;7.30;99.90;;;;;;5070773;28;20040;-80
2023/03/14 11:18:45;;;;;;;0.70;0.70;;;7.30;99.90;;;;;;5052028;28;20050;-79
2023/03/14 11:21:26;;;;;;;0.70;0.70;;;7.20;99.90;;;;;;5069720;28;20394;-78
2023/03/14 11:23:58;;;;;;;0.60;0.60;;;7.30;99.90;;;;;;5069096;28;20086;-80
2023/03/14 11:26:31;;;;;;;0.60;0.60;;;7.30;99.90;;;;;;5070824;28;20048;-81
2023/03/14 11:29:22;;;;;;;0.60;0.60;;;7.40;99.90;;;;;;5074981;28;20477;-80
2023/03/14 11:31:48;;;;;;;0.60;0.60;;;7.50;99.90;;;;;;5073125;28;20579;-80
2023/03/14 11:34:22;;;;;;;0.60;0.60;;;7.70;99.90;;;;;;5055391;28;20044;-78
2023/03/14 11:37:06;;;;;;;0.60;0.60;;;7.80;99.90;;;;;;5074650;28;20044;-80
2023/03/14 11:39:41;;;;;;;0.70;0.70;;;7.50;99.90;;;;;;5034996;28;20121;-79
2023/03/14 11:42:16;;;;;;;0.70;0.70;;;7.60;99.90;;;;;;5072846;28;20048;-82
2023/03/14 11:44:46;;;;;;;0.70;0.70;;;7.60;99.90;;;;;;5054951;28;20055;-80
2023/03/14 11:47:24;;;;;;;0.60;0.60;;;7.60;99.90;;;;;;5081575;28;20052;-79
2023/03/14 11:50:15;;;;;;;0.70;0.70;;;7.80;99.90;;;;;;5077600;28;20810;-79
2023/03/14 11:52:43;;;;;;;0.60;0.60;;;8.10;99.90;;;;;;5058204;28;20063;-79
2023/03/14 11:55:20;;;;;;;0.60;0.60;;;8.20;99.90;;;;;;5076931;28;20040;-80
2023/03/14 11:57:49;;;;;;;0.70;0.70;;;8.30;99.90;;;;;;5078379;28;20561;-80
2023/03/14 12:00:21;;;;;;;0.60;0.60;;;8.00;99.90;;;;;;5046196;28;20048;-79
2023/03/14 12:03:19;;;;;;;0.60;0.60;;;7.70;99.90;;;;;;5067486;28;20567;-78
2023/03/14 12:05:58;;;;;;;0.63;0.63;;;7.80;99.90;;;;;;5013575;28;20067;-80
2023/03/14 12:08:50;;;;;;;0.60;0.60;;;8.00;99.90;;;;;;5075840;28;20566;-80
2023/03/14 12:11:34;;;;;;;0.70;0.70;;;8.10;99.90;;;;;;5055859;28;20052;-79
2023/03/14 12:14:00;;;;;;;0.60;0.60;;;8.30;99.90;;;;;;5075661;28;20069;-80
2023/03/14 12:16:37;;;;;;;0.60;0.60;;;8.40;99.90;;;;;;5059266;28;20052;-79
2023/03/14 12:19:23;;;;;;;0.60;0.60;;;8.50;99.90;;;;;;5055650;28;20051;-78
2023/03/14 12:21:59;;;;;;;0.60;0.60;;;8.70;99.90;;;;;;5059694;28;20048;-80
2023/03/14 12:24:30;;;;;;;0.60;0.60;;;8.80;99.90;;;;;;5059342;28;20048;-81
2023/03/14 12:26:58;;;;;;;0.60;0.60;;;8.50;99.90;;;;;;5077423;28;20050;-79
2023/03/14 12:29:24;;;;;;;0.70;0.70;;;8.10;99.90;;;;;;5038381;28;20044;-80
2023/03/14 12:32:09;;;;;;;0.70;0.70;;;8.10;99.90;;;;;;5077872;28;20105;-79
2023/03/14 12:34:40;;;;;;;0.70;0.70;;;7.90;99.90;;;;;;5075837;28;20039;-79
2023/03/14 12:37:16;;;;;;;0.70;0.70;;;8.10;99.90;;;;;;5077196;28;20086;-77
2023/03/14 12:39:50;;;;;;;0.60;0.60;;;8.10;99.90;;;;;;5038785;28;20439;-79
2023/03/14 12:42:40;;;;;;;0.70;0.70;;;8.30;99.90;;;;;;5071916;28;20047;-79
2023/03/14 12:45:22;;;;;;;0.60;0.60;;;8.70;99.90;;;;;;5052117;28;20043;-79
2023/03/14 12:47:55;;;;;;;0.70;0.70;;;8.80;99.90;;;;;;5042144;28;20048;-78
2023/03/14 12:50:26;;;;;;;0.60;0.60;;;9.20;99.90;;;;;;5056135;28;20052;-78
2023/03/14 12:53:10;;;;;;;0.70;0.70;;;9.00;99.90;;;;;;5059204;28;20796;-78
2023/03/14 12:55:53;;;;;;;0.60;0.60;;;9.40;99.90;;;;;;5076254;28;20543;-79
2023/03/14 12:58:35;;;;;;;0.70;0.70;;;8.80;99.90;;;;;;5056751;28;20059;-78
2023/03/14 13:01:03;;;;;;;0.60;0.60;;;8.30;99.90;;;;;;5058121;28;20151;-77
2023/03/14 13:03:56;;;;;;;0.68;0.68;;;8.00;99.90;;;;;;5072813;28;20435;-79
2023/03/14 13:06:53;;;;;;;0.60;0.60;;;7.90;99.90;;;;;;5053295;28;20623;-80
2023/03/14 13:09:34;;;;;;;0.60;0.60;;;8.40;99.90;;;;;;5069113;28;20050;-79